createdAt,value
2024-05-09T00:02:17.511Z,8.15
2024-05-09T00:07:19.512Z,8.27
2024-05-09T00:12:21.579Z,8.90
2024-05-09T00:17:23.701Z,8.80
2024-05-09T00:22:25.671Z,7.75
2024-05-09T00:27:27.513Z,9.68
2024-05-09T00:32:29.499Z,9.27
2024-05-09T00:37:31.478Z,8.32
2024-05-09T00:42:37.910Z,8.73
2024-05-09T00:47:42.921Z,8.85
2024-05-09T00:52:46.731Z,8.57
2024-05-09T00:57:48.674Z,8.63
2024-05-09T01:02:50.627Z,9.45
2024-05-09T01:07:52.675Z,10.05
2024-05-09T01:12:54.519Z,8.88
2024-05-09T01:17:57.800Z,8.68
2024-05-09T01:23:01.300Z,8.77
2024-05-09T01:28:03.243Z,9.45
2024-05-09T01:33:08.060Z,9.98
2024-05-09T01:38:13.922Z,10.35
2024-05-09T01:43:16.295Z,10.05
2024-05-09T01:48:18.238Z,9.52
2024-05-09T01:53:20.159Z,9.55
2024-05-09T01:58:22.062Z,9.77
2024-05-09T02:03:24.199Z,10.13
2024-05-09T02:08:26.191Z,10.40
2024-05-09T02:13:28.059Z,9.55
2024-05-09T02:18:30.028Z,9.23
2024-05-09T02:23:32.007Z,9.45
2024-05-09T02:28:33.891Z,10.32
2024-05-09T02:33:36.006Z,11.27
2024-05-09T02:38:38.980Z,10.45
2024-05-09T02:43:40.923Z,9.90
2024-05-09T02:48:43.467Z,11.60
2024-05-09T02:53:45.472Z,11.40
2024-05-09T02:58:47.423Z,13.07
2024-05-09T03:03:51.012Z,12.88
2024-05-09T03:08:52.960Z,12.82
2024-05-09T03:13:55.332Z,12.43
2024-05-09T03:18:57.393Z,11.73
2024-05-09T03:23:59.324Z,11.70
2024-05-09T03:29:01.308Z,14.18
2024-05-09T03:34:03.384Z,14.63
2024-05-09T03:39:05.392Z,14.35
2024-05-09T03:44:08.062Z,12.85
2024-05-09T03:49:10.159Z,12.30
2024-05-09T03:54:12.717Z,12.45
2024-05-09T03:59:16.705Z,12.68
2024-05-09T04:04:18.630Z,11.63
2024-05-09T04:09:20.466Z,12.00
2024-05-09T04:14:22.364Z,11.27
2024-05-09T04:19:24.603Z,10.93
2024-05-09T04:24:26.537Z,12.75
2024-05-09T04:29:28.638Z,12.18
2024-05-09T04:34:30.635Z,12.18
2024-05-09T04:39:34.511Z,12.07
2024-05-09T04:44:36.529Z,11.57
2024-05-09T04:49:38.385Z,12.73
2024-05-09T04:54:40.226Z,11.77
2024-05-09T04:59:42.035Z,12.07
2024-05-09T05:04:45.168Z,10.30
2024-05-09T05:09:47.093Z,12.02
2024-05-09T05:14:49.099Z,12.57
2024-05-09T05:19:51.138Z,10.45
2024-05-09T05:24:53.051Z,10.27
2024-05-09T05:29:54.929Z,10.20
2024-05-09T05:34:56.844Z,10.98
2024-05-09T05:39:58.680Z,11.30
2024-05-09T05:45:00.698Z,11.65
2024-05-09T05:50:03.791Z,10.98
2024-05-09T05:55:07.272Z,11.40
2024-05-09T06:00:15.232Z,10.65
2024-05-09T06:05:24.785Z,10.82
2024-05-09T06:10:35.246Z,11.40
2024-05-09T06:15:41.344Z,11.68
2024-05-09T06:20:44.246Z,11.75
2024-05-09T06:25:46.530Z,11.45
2024-05-09T06:30:48.447Z,10.43
2024-05-09T06:35:50.486Z,11.52
2024-05-09T06:40:52.495Z,11.15
2024-05-09T06:45:54.437Z,10.75
2024-05-09T06:50:57.265Z,9.95
2024-05-09T06:55:59.291Z,11.23
2024-05-09T07:01:01.384Z,10.52
2024-05-09T07:06:03.518Z,10.30
2024-05-09T07:11:05.763Z,10.15
2024-05-09T07:16:07.783Z,10.20
2024-05-09T07:21:09.817Z,9.38
2024-05-09T07:26:11.970Z,10.65
2024-05-09T07:31:14.276Z,10.10
2024-05-09T07:36:16.311Z,9.45
2024-05-09T07:41:18.277Z,9.63
2024-05-09T07:56:30.183Z,7.25
2024-05-09T08:01:32.516Z,6.25
2024-05-09T08:06:34.614Z,6.05
2024-05-09T08:11:36.573Z,6.50
2024-05-09T08:16:38.538Z,5.45
2024-05-09T08:21:40.464Z,5.70
2024-05-09T08:26:42.372Z,6.90
2024-05-09T08:31:44.557Z,6.10
2024-05-09T08:36:46.541Z,6.13
2024-05-09T08:41:53.204Z,6.10
2024-05-09T08:46:56.079Z,5.78
2024-05-09T08:51:58.080Z,5.50
2024-05-09T08:57:01.224Z,5.65
2024-05-09T09:02:06.110Z,5.85
2024-05-09T09:07:08.111Z,4.95
2024-05-09T09:12:12.652Z,4.57
2024-05-09T09:17:16.138Z,4.20
2024-05-09T09:22:19.904Z,3.90
2024-05-09T09:27:22.602Z,3.67
2024-05-09T09:32:29.152Z,3.40
2024-05-09T09:37:31.455Z,3.88
2024-05-09T09:42:36.633Z,3.25
2024-05-09T09:47:40.667Z,3.53
2024-05-09T09:52:43.057Z,3.40
2024-05-09T09:57:45.205Z,3.20
2024-05-09T10:02:47.139Z,3.35
2024-05-09T10:07:49.419Z,3.30
2024-05-09T10:13:09.515Z,2.80
2024-05-09T10:18:11.741Z,2.65
2024-05-09T10:23:31.224Z,2.72
2024-05-09T10:28:35.337Z,3.25
2024-05-09T10:33:53.868Z,2.50
2024-05-09T10:38:56.196Z,2.50
2024-05-09T10:43:58.091Z,2.72
2024-05-09T10:49:03.318Z,2.50
2024-05-09T10:54:07.877Z,3.30
2024-05-09T10:59:09.799Z,2.90
2024-05-09T11:04:12.211Z,2.38
2024-05-09T11:09:14.858Z,3.35
2024-05-09T11:14:17.389Z,2.83
2024-05-09T11:19:19.907Z,2.58
2024-05-09T11:24:23.187Z,2.65
2024-05-09T11:29:43.313Z,2.33
2024-05-09T11:34:45.283Z,2.47
2024-05-09T11:39:47.279Z,2.58
2024-05-09T11:44:49.169Z,2.50
2024-05-09T11:49:51.113Z,2.47
2024-05-09T11:54:53.073Z,2.40
2024-05-09T11:59:55.215Z,2.63
2024-05-09T12:04:57.250Z,2.58
2024-05-09T12:09:59.277Z,2.83
2024-05-09T12:15:01.235Z,2.70
2024-05-09T12:20:04.314Z,2.55
2024-05-09T12:25:09.060Z,2.53
2024-05-09T12:30:14.236Z,2.50
2024-05-09T12:35:18.933Z,2.35
2024-05-09T12:40:26.875Z,2.65
2024-05-09T12:45:36.985Z,2.60
2024-05-09T12:50:39.578Z,2.22
2024-05-09T12:55:48.541Z,3.00
2024-05-09T13:00:58.333Z,2.30
2024-05-09T13:06:00.378Z,2.63
2024-05-09T13:11:02.348Z,2.40
2024-05-09T13:16:04.708Z,2.78
2024-05-09T13:21:06.634Z,2.30
2024-05-09T13:26:08.535Z,2.22
2024-05-09T13:31:10.473Z,2.33
2024-05-09T13:36:12.365Z,2.63
2024-05-09T13:41:14.291Z,2.70
2024-05-09T13:46:16.209Z,2.38
2024-05-09T13:51:18.188Z,2.42
2024-05-09T13:56:20.052Z,2.40
2024-05-09T14:01:21.962Z,2.42
2024-05-09T14:06:23.983Z,3.03
2024-05-09T14:11:25.945Z,2.25
2024-05-09T14:16:29.377Z,2.67
2024-05-09T14:21:31.344Z,2.30
2024-05-09T14:26:33.358Z,3.15
2024-05-09T14:31:37.894Z,3.00
2024-05-09T14:36:41.328Z,2.55
2024-05-09T14:41:43.261Z,2.25
2024-05-09T14:46:45.251Z,2.58
2024-05-09T14:51:48.171Z,2.63
2024-05-09T14:56:51.031Z,2.50
2024-05-09T15:01:53.035Z,2.50
2024-05-09T15:06:56.674Z,2.38
2024-05-09T15:12:01.527Z,3.20
2024-05-09T15:17:03.574Z,2.50
2024-05-09T15:22:05.602Z,2.72
2024-05-09T15:27:07.505Z,2.70
2024-05-09T15:32:09.563Z,2.50
2024-05-09T15:37:12.093Z,2.15
2024-05-09T15:42:14.020Z,2.80
2024-05-09T15:47:15.895Z,3.00
2024-05-09T15:52:18.109Z,2.60
2024-05-09T15:57:20.154Z,2.40
2024-05-09T16:02:22.254Z,2.45
2024-05-09T16:07:24.843Z,2.47
2024-05-09T16:12:26.695Z,2.60
2024-05-09T16:17:28.820Z,2.72
2024-05-09T16:22:31.309Z,2.50
2024-05-09T16:27:33.383Z,2.53
2024-05-09T16:32:35.350Z,2.70
2024-05-09T16:37:37.479Z,2.70
2024-05-09T16:42:39.535Z,2.70
2024-05-09T16:47:41.624Z,3.10
2024-05-09T16:52:43.761Z,2.47
2024-05-09T16:57:45.664Z,2.45
2024-05-09T17:02:47.577Z,2.50
2024-05-09T17:07:50.791Z,2.78
2024-05-09T17:12:52.993Z,2.33
2024-05-09T17:17:55.601Z,2.60
2024-05-09T17:22:57.797Z,2.60
2024-05-09T17:28:06.179Z,2.28
2024-05-09T17:33:10.681Z,2.67
2024-05-09T17:38:13.628Z,2.58
2024-05-09T17:43:15.666Z,2.42
2024-05-09T17:48:17.883Z,2.60
2024-05-09T17:53:31.789Z,2.40
2024-05-09T17:58:34.096Z,2.58
2024-05-09T18:03:36.420Z,2.60
2024-05-09T18:08:38.497Z,2.10
2024-05-09T18:13:40.379Z,2.67
2024-05-09T18:18:42.383Z,2.63
2024-05-09T18:23:44.339Z,2.45
2024-05-09T18:28:47.596Z,2.50
2024-05-09T18:33:49.773Z,2.50
2024-05-09T18:38:51.788Z,2.47
2024-05-09T18:43:54.309Z,2.22
2024-05-09T18:48:56.332Z,2.40
2024-05-09T18:53:58.237Z,2.30
2024-05-09T18:59:00.168Z,2.25
2024-05-09T19:04:02.301Z,2.50
2024-05-09T19:09:05.202Z,2.60
2024-05-09T19:14:07.689Z,2.13
2024-05-09T19:19:10.146Z,2.45
2024-05-09T19:24:12.111Z,2.47
2024-05-09T19:29:13.959Z,2.47
2024-05-09T19:34:16.732Z,2.70
2024-05-09T19:39:18.637Z,2.60
2024-05-09T19:44:20.545Z,2.40
2024-05-09T19:49:22.647Z,2.35
2024-05-09T19:54:24.672Z,2.60
2024-05-09T19:59:26.534Z,2.60
2024-05-09T20:04:28.662Z,2.58
2024-05-09T20:09:30.660Z,2.80
2024-05-09T20:14:32.496Z,2.45
2024-05-09T20:19:34.616Z,2.72
2024-05-09T20:24:36.712Z,3.00
2024-05-09T20:29:38.653Z,2.90
2024-05-09T20:34:40.677Z,3.75
2024-05-09T20:39:42.527Z,3.40
2024-05-09T20:44:44.382Z,2.95
2024-05-09T20:49:46.437Z,3.42
2024-05-09T20:54:48.338Z,3.42
2024-05-09T20:59:50.181Z,3.40
2024-05-09T21:04:52.162Z,4.50
2024-05-09T21:09:54.109Z,3.95
2024-05-09T21:14:55.977Z,4.20
2024-05-09T21:19:57.874Z,3.42
2024-05-09T21:25:00.026Z,3.85
2024-05-09T21:30:01.992Z,3.70
2024-05-09T21:35:04.283Z,3.60
2024-05-09T21:40:11.429Z,3.40
2024-05-09T21:45:15.707Z,3.65
2024-05-09T21:50:22.915Z,4.05
2024-05-09T21:55:30.279Z,4.28
2024-05-09T22:00:36.742Z,3.60
2024-05-09T22:05:43.725Z,4.00
2024-05-09T22:10:45.946Z,3.78
2024-05-09T22:15:49.207Z,4.07
2024-05-09T22:20:51.060Z,4.40
2024-05-09T22:25:52.910Z,4.28
2024-05-09T22:30:55.578Z,3.97
2024-05-09T22:35:57.468Z,3.83
2024-05-09T22:40:59.359Z,4.50
2024-05-09T22:46:03.102Z,4.32
2024-05-09T22:51:05.205Z,3.72
2024-05-09T22:56:07.601Z,3.80
2024-05-09T23:01:14.985Z,4.20
2024-05-09T23:06:16.952Z,4.10
2024-05-09T23:11:18.870Z,3.83
2024-05-09T23:16:20.965Z,3.95
2024-05-09T23:21:22.884Z,4.18
2024-05-09T23:26:24.731Z,4.28
2024-05-09T23:31:26.673Z,4.10
2024-05-09T23:36:29.363Z,4.03
2024-05-09T23:41:31.208Z,4.38
2024-05-09T23:46:33.129Z,4.32
2024-05-09T23:51:35.214Z,4.22
2024-05-09T23:56:37.169Z,3.78
